Weather at Cranbrook Airport

Public forecast

Using degrees Celsius for public forecast. Weather courtesy of forecast.io.

Closest aviation weather report (METAR) to Cranbrook Airport

Closest report is Albany Airport, 41.6 nm (77.1 km) SSE. Retrieved 2020/10/29 14:00 UTC (12 minutes ago):

YABA 291400Z AUTO 08009KT 9999 // OVC022 14/10 Q1022

Closest aviation forecast (TAF) to Cranbrook Airport

Closest forecast is Perth Jandakot Airport, 155.7 nm (288.4 km) NNW. Retrieved 2020/10/29 12:00 UTC (2 hours ago):

TAF YPJT 291117Z 2912/3006 10013KT CAVOK FM291700 09015G25KT CAVOK FM300000 07013KT CAVOK